createdAt,value
2023-02-22T00:05:23.668Z,4.19
2023-02-22T00:09:32.826Z,4.22
2023-02-22T00:22:14.072Z,4.44
2023-02-22T00:26:44.836Z,4.49
2023-02-22T00:34:53.723Z,4.63
2023-02-22T00:38:56.005Z,4.69
2023-02-22T00:43:16.317Z,4.72
2023-02-22T00:47:54.908Z,4.74
2023-02-22T00:52:15.834Z,4.76
2023-02-22T01:15:12.521Z,4.81
2023-02-22T01:19:38.967Z,4.65
2023-02-22T01:32:34.024Z,4.14
2023-02-22T01:36:43.272Z,4.00
2023-02-22T01:44:49.966Z,3.78
2023-02-22T01:49:04.387Z,3.66
2023-02-22T02:10:27.610Z,3.00
2023-02-22T02:14:57.015Z,2.86
2023-02-22T02:19:08.855Z,2.78
2023-02-22T02:46:12.227Z,2.18
2023-02-22T02:50:59.485Z,2.05
2023-02-22T02:55:20.448Z,1.93
2023-02-22T03:35:10.120Z,1.33
2023-02-22T03:39:35.433Z,1.28
2023-02-22T03:43:50.708Z,1.22
2023-02-22T03:48:21.382Z,1.17
2023-02-22T04:13:49.096Z,0.81
2023-02-22T04:17:40.982Z,0.67
2023-02-22T04:22:03.209Z,0.59
2023-02-22T04:26:27.064Z,0.56
2023-02-22T04:30:57.810Z,0.51
2023-02-22T04:35:27.919Z,0.46
2023-02-22T04:39:35.085Z,0.40
2023-02-22T04:44:04.643Z,0.36
2023-02-22T04:48:26.968Z,0.29
2023-02-22T04:52:46.360Z,0.23
2023-02-22T04:56:56.351Z,0.15
2023-02-22T05:01:17.813Z,0.11
2023-02-22T05:05:30.506Z,0.06
2023-02-22T05:09:59.629Z,0.02
2023-02-22T05:14:27.724Z,-0.01
2023-02-22T05:18:49.523Z,-0.03
2023-02-22T05:22:50.665Z,-0.05
2023-02-22T05:27:20.283Z,-0.05
2023-02-22T05:31:49.643Z,-0.04
2023-02-22T05:36:18.590Z,-0.03
2023-02-22T05:40:48.795Z,-0.02
2023-02-22T06:12:49.429Z,0.63
2023-02-22T06:17:01.743Z,0.75
2023-02-22T06:20:30.355Z,0.88
2023-02-22T06:24:39.441Z,1.01
2023-02-22T06:28:53.583Z,1.14
2023-02-22T06:33:10.984Z,1.26
2023-02-22T06:36:55.704Z,1.38
2023-02-22T06:40:58.290Z,1.48
2023-02-22T06:44:41.235Z,1.58
2023-02-22T06:48:45.617Z,1.69
2023-02-22T06:52:56.189Z,1.78
2023-02-22T06:56:54.770Z,1.87
2023-02-22T07:00:47.840Z,1.96
2023-02-22T07:04:10.079Z,2.08
2023-02-22T07:07:27.038Z,2.16
2023-02-22T07:10:27.684Z,2.25
2023-02-22T07:14:02.530Z,2.34
2023-02-22T07:17:36.330Z,2.43
2023-02-22T07:21:45.373Z,2.56
2023-02-22T07:25:54.640Z,2.68
2023-02-22T07:30:23.861Z,2.79
2023-02-22T07:34:41.937Z,2.92
2023-02-22T07:38:02.764Z,3.03
2023-02-22T07:42:04.275Z,3.17
2023-02-22T07:46:32.270Z,3.33
2023-02-22T07:56:45.535Z,3.75
2023-02-22T08:00:57.293Z,3.86
2023-02-22T08:05:03.642Z,4.00
2023-02-22T08:09:38.722Z,4.11
2023-02-22T08:14:00.729Z,4.23
2023-02-22T08:18:17.263Z,4.33
2023-02-22T08:21:53.060Z,4.41
2023-02-22T08:24:34.998Z,4.45
2023-02-22T08:28:47.150Z,4.50
2023-02-22T08:32:58.455Z,4.56
2023-02-22T08:36:44.370Z,4.68
2023-02-22T08:41:06.096Z,4.80
2023-02-22T09:23:20.198Z,5.97
2023-02-22T09:27:21.806Z,6.04
2023-02-22T09:31:51.417Z,6.14
2023-02-22T09:35:38.748Z,6.31
2023-02-22T09:39:44.263Z,6.51
2023-02-22T09:43:37.372Z,6.61
2023-02-22T11:15:59.558Z,8.38
2023-02-22T12:14:06.932Z,8.93
2023-02-22T12:18:00.005Z,8.97
2023-02-22T12:22:22.985Z,8.95
2023-02-22T12:26:38.789Z,8.82
2023-02-22T12:31:12.708Z,8.75
2023-02-22T12:36:05.425Z,8.76
2023-02-22T12:40:40.492Z,8.81
2023-02-22T12:45:11.797Z,8.77
2023-02-22T12:49:36.902Z,8.72
2023-02-22T12:54:02.800Z,8.84
2023-02-22T12:58:40.462Z,8.99
2023-02-22T13:03:07.589Z,9.00
2023-02-22T13:07:49.626Z,9.02
2023-02-22T13:11:54.569Z,9.16
2023-02-22T13:15:53.709Z,9.34
2023-02-22T13:20:11.611Z,9.28
2023-02-22T13:24:49.821Z,9.31
2023-02-22T13:33:43.698Z,9.41
2023-02-22T14:22:37.318Z,9.54
2023-02-22T14:27:12.990Z,9.21
2023-02-22T14:31:05.083Z,8.91
2023-02-22T14:35:17.172Z,8.74
2023-02-22T14:39:32.297Z,8.56
2023-02-22T14:43:39.839Z,8.46
2023-02-22T14:47:38.220Z,8.31
2023-02-22T14:51:39.015Z,8.22
2023-02-22T14:56:08.454Z,8.09
2023-02-22T15:00:37.878Z,7.94
2023-02-22T15:47:14.958Z,7.03
2023-02-22T16:24:23.355Z,6.27
2023-02-22T16:28:38.976Z,6.11
2023-02-22T16:32:43.518Z,6.01
2023-02-22T16:36:53.539Z,5.91
2023-02-22T16:41:23.147Z,5.80
2023-02-22T16:45:36.700Z,5.68
2023-02-22T16:50:06.165Z,5.59
2023-02-22T16:54:27.817Z,5.52
2023-02-22T17:20:00.322Z,5.22
2023-02-22T17:24:29.735Z,5.15
2023-02-22T17:28:59.084Z,5.09
2023-02-22T17:33:18.356Z,5.01
2023-02-22T17:37:47.591Z,4.92
2023-02-22T17:41:54.947Z,4.85
2023-02-22T17:45:54.203Z,4.76
2023-02-22T17:49:04.930Z,4.69
2023-02-22T17:53:28.924Z,4.62
2023-02-22T18:14:43.647Z,4.38
2023-02-22T18:19:13.401Z,4.31
2023-02-22T18:48:56.591Z,4.00
2023-02-22T18:53:25.978Z,3.93
2023-02-22T18:57:55.691Z,3.89
2023-02-22T19:02:26.080Z,3.85
2023-02-22T19:24:41.418Z,3.74
2023-02-22T19:29:10.913Z,3.68
2023-02-22T19:33:29.071Z,3.65
2023-02-22T19:37:42.160Z,3.62
2023-02-22T20:00:24.884Z,3.50
2023-02-22T20:04:52.846Z,3.47
2023-02-22T20:09:03.598Z,3.41
2023-02-22T20:17:50.853Z,3.38
2023-02-22T20:38:47.171Z,3.24
2023-02-22T20:43:13.489Z,3.21
2023-02-22T20:47:24.953Z,3.16
2023-02-22T20:51:37.574Z,3.13
2023-02-22T20:55:47.163Z,3.10
2023-02-22T21:00:07.845Z,3.04
2023-02-22T21:04:32.479Z,3.01
2023-02-22T21:08:43.333Z,2.98
2023-02-22T21:13:11.219Z,2.94
2023-02-22T21:30:22.429Z,2.81
2023-02-22T21:34:50.535Z,2.72
2023-02-22T21:39:23.168Z,2.66
2023-02-22T21:43:52.700Z,2.62
2023-02-22T21:48:22.653Z,2.57
2023-02-22T21:52:50.498Z,2.53
2023-02-22T22:12:57.898Z,2.38
2023-02-22T22:16:44.681Z,2.34
2023-02-22T22:21:07.505Z,2.27
2023-02-22T22:25:26.892Z,2.22
2023-02-22T22:47:34.705Z,2.13
2023-02-22T22:52:05.153Z,2.08
2023-02-22T22:56:07.831Z,2.03
2023-02-22T23:00:45.911Z,1.97
2023-02-22T23:22:11.741Z,1.89
2023-02-22T23:26:33.778Z,1.85
2023-02-22T23:30:57.310Z,1.80
2023-02-22T23:47:32.811Z,1.78
2023-02-22T23:52:02.289Z,1.76
2023-02-22T23:56:11.278Z,1.75
